createdAt,value
2019-03-20T00:02:24.847Z,3.22
2019-03-20T00:04:53.949Z,3.00
2019-03-20T00:07:23.100Z,2.90
2019-03-20T00:09:52.213Z,2.62
2019-03-20T00:12:21.373Z,2.95
2019-03-20T00:14:50.485Z,3.02
2019-03-20T00:17:19.655Z,3.05
2019-03-20T00:19:48.782Z,2.27
2019-03-20T00:22:17.909Z,2.52
2019-03-20T00:24:47.040Z,2.70
2019-03-20T00:27:16.170Z,2.25
2019-03-20T00:29:45.294Z,2.12
2019-03-20T00:32:14.435Z,2.37
2019-03-20T00:34:43.553Z,2.30
2019-03-20T00:37:12.696Z,1.82
2019-03-20T00:39:41.859Z,2.95
2019-03-20T00:42:10.959Z,2.75
2019-03-20T00:44:40.073Z,2.55
2019-03-20T00:47:09.311Z,3.22
2019-03-20T00:49:38.452Z,2.98
2019-03-20T00:52:07.641Z,3.67
2019-03-20T00:54:36.790Z,2.77
2019-03-20T00:57:05.942Z,2.98
2019-03-20T00:59:35.066Z,2.90
2019-03-20T01:02:04.228Z,1.98
2019-03-20T01:04:33.368Z,2.08
2019-03-20T01:07:02.482Z,2.37
2019-03-20T01:09:31.626Z,2.55
2019-03-20T01:12:00.869Z,2.60
2019-03-20T01:14:30.015Z,3.65
2019-03-20T01:16:59.245Z,2.47
2019-03-20T01:19:28.454Z,3.15
2019-03-20T01:21:57.617Z,2.37
2019-03-20T01:24:26.761Z,3.10
2019-03-20T01:26:55.863Z,2.40
2019-03-20T01:29:25.001Z,2.30
2019-03-20T01:31:54.131Z,2.22
2019-03-20T01:34:23.271Z,2.10
2019-03-20T01:36:52.389Z,2.20
2019-03-20T01:39:21.644Z,2.50
2019-03-20T01:41:50.754Z,2.22
2019-03-20T01:44:19.892Z,2.80
2019-03-20T01:46:49.106Z,3.08
2019-03-20T01:49:18.249Z,2.50
2019-03-20T01:51:47.412Z,2.60
2019-03-20T01:54:16.570Z,2.27
2019-03-20T01:56:45.685Z,2.40
2019-03-20T01:59:14.842Z,2.52
2019-03-20T02:01:44.138Z,2.55
2019-03-20T02:04:13.380Z,2.70
2019-03-20T02:06:42.511Z,3.08
2019-03-20T02:09:11.643Z,2.80
2019-03-20T02:11:40.767Z,2.83
2019-03-20T02:14:09.905Z,2.45
2019-03-20T02:16:39.041Z,2.40
2019-03-20T02:19:08.211Z,3.27
2019-03-20T02:21:37.357Z,3.10
2019-03-20T02:24:06.761Z,2.65
2019-03-20T02:26:35.925Z,2.22
2019-03-20T02:29:05.081Z,3.00
2019-03-20T02:31:34.196Z,2.83
2019-03-20T02:34:03.337Z,2.45
2019-03-20T02:36:32.494Z,3.00
2019-03-20T02:39:01.621Z,2.05
2019-03-20T02:41:30.760Z,2.58
2019-03-20T02:43:59.909Z,2.70
2019-03-20T02:46:29.184Z,2.10
2019-03-20T02:48:58.296Z,2.52
2019-03-20T02:51:27.436Z,1.80
2019-03-20T02:53:56.518Z,3.33
2019-03-20T02:56:25.672Z,2.90
2019-03-20T02:58:54.785Z,2.15
2019-03-20T03:01:23.904Z,2.92
2019-03-20T03:03:53.033Z,2.95
2019-03-20T03:06:22.183Z,2.67
2019-03-20T03:08:51.321Z,3.40
2019-03-20T03:11:20.536Z,3.40
2019-03-20T03:13:49.663Z,3.55
2019-03-20T03:16:18.832Z,2.40
2019-03-20T03:18:47.941Z,2.77
2019-03-20T03:21:17.197Z,2.87
2019-03-20T03:23:46.300Z,2.20
2019-03-20T03:26:15.432Z,2.47
2019-03-20T03:28:44.559Z,3.10
2019-03-20T03:31:13.850Z,3.12
2019-03-20T03:33:42.966Z,3.62
2019-03-20T03:36:21.190Z,3.62
2019-03-20T03:38:42.956Z,3.05
2019-03-20T03:41:13.522Z,3.75
2019-03-20T03:43:42.614Z,2.20
2019-03-20T03:46:11.773Z,2.65
2019-03-20T03:48:40.893Z,3.10
2019-03-20T03:51:11.336Z,2.75
2019-03-20T03:53:40.467Z,3.80
2019-03-20T03:56:09.621Z,2.83
2019-03-20T03:58:38.841Z,3.52
2019-03-20T04:01:07.987Z,3.60
2019-03-20T04:03:37.091Z,6.45
2019-03-20T04:06:06.266Z,8.33
2019-03-20T04:08:35.378Z,6.40
2019-03-20T04:11:04.520Z,6.72
2019-03-20T04:13:33.642Z,7.45
2019-03-20T04:16:02.752Z,6.83
2019-03-20T04:18:31.871Z,5.87
2019-03-20T04:21:00.998Z,4.83
2019-03-20T04:23:30.090Z,4.87
2019-03-20T04:25:59.231Z,7.53
2019-03-20T04:28:28.377Z,6.80
2019-03-20T04:30:57.515Z,6.87
2019-03-20T04:33:26.680Z,5.40
2019-03-20T04:35:55.809Z,8.93
2019-03-20T04:38:24.918Z,12.70
2019-03-20T04:40:54.073Z,14.47
2019-03-20T04:43:23.191Z,8.80
2019-03-20T04:45:52.360Z,10.15
2019-03-20T04:48:21.494Z,6.00
2019-03-20T04:50:50.619Z,7.10
2019-03-20T04:53:19.751Z,7.97
2019-03-20T04:55:48.885Z,11.28
2019-03-20T04:58:18.097Z,7.28
2019-03-20T05:00:47.260Z,7.70
2019-03-20T05:03:16.375Z,6.58
2019-03-20T05:05:45.542Z,4.55
2019-03-20T05:08:14.661Z,3.08
2019-03-20T05:10:43.782Z,4.70
2019-03-20T05:13:12.905Z,5.25
2019-03-20T05:15:42.034Z,7.00
2019-03-20T05:18:11.161Z,3.92
2019-03-20T05:20:40.309Z,5.53
2019-03-20T05:23:09.471Z,7.05
2019-03-20T05:25:38.603Z,6.50
2019-03-20T05:28:07.825Z,5.87
2019-03-20T05:30:36.982Z,7.92
2019-03-20T05:33:06.127Z,4.42
2019-03-20T05:35:35.272Z,17.15
2019-03-20T05:38:04.404Z,10.90
2019-03-20T05:40:33.542Z,7.50
2019-03-20T05:43:02.690Z,5.60
2019-03-20T05:45:31.835Z,5.67
2019-03-20T05:48:00.958Z,5.65
2019-03-20T05:50:30.080Z,5.92
2019-03-20T05:52:59.212Z,5.37
2019-03-20T05:55:28.365Z,4.95
2019-03-20T05:57:57.590Z,5.78
2019-03-20T06:00:29.665Z,6.05
2019-03-20T06:02:58.820Z,5.28
2019-03-20T06:05:27.972Z,7.22
2019-03-20T06:07:57.111Z,6.83
2019-03-20T06:10:26.249Z,7.60
2019-03-20T06:12:55.487Z,7.33
2019-03-20T06:15:24.767Z,6.92
2019-03-20T06:17:53.913Z,5.75
2019-03-20T06:20:23.041Z,7.08
2019-03-20T06:22:52.196Z,5.55
2019-03-20T06:25:21.739Z,5.65
2019-03-20T06:27:52.874Z,6.10
2019-03-20T06:30:21.839Z,7.47
2019-03-20T06:32:51.061Z,7.12
2019-03-20T06:35:20.377Z,6.47
2019-03-20T06:37:49.542Z,8.85
2019-03-20T06:40:18.733Z,10.80
2019-03-20T06:42:47.869Z,8.23
2019-03-20T06:45:16.992Z,8.03
2019-03-20T06:47:46.129Z,7.62
2019-03-20T06:50:15.609Z,8.33
2019-03-20T06:52:44.731Z,7.20
2019-03-20T06:55:13.848Z,6.22
2019-03-20T06:57:43.034Z,5.87
2019-03-20T07:00:40.888Z,6.80
2019-03-20T07:03:13.494Z,5.72
2019-03-20T07:06:14.114Z,6.05
2019-03-20T07:08:59.396Z,5.75
2019-03-20T07:11:26.858Z,6.47
2019-03-20T07:13:56.071Z,5.62
2019-03-20T07:16:25.196Z,6.00
2019-03-20T07:18:54.354Z,6.08
2019-03-20T07:21:23.483Z,6.83
2019-03-20T07:23:52.622Z,6.62
2019-03-20T07:26:21.789Z,6.95
2019-03-20T07:28:50.927Z,6.92
2019-03-20T07:31:20.038Z,7.87
2019-03-20T07:33:49.201Z,7.50
2019-03-20T07:36:18.411Z,6.33
2019-03-20T07:38:47.521Z,7.55
2019-03-20T07:41:16.675Z,10.20
2019-03-20T07:43:45.800Z,10.45
2019-03-20T07:46:14.937Z,9.28
2019-03-20T07:48:44.080Z,7.70
2019-03-20T07:51:14.394Z,7.87
2019-03-20T07:53:43.560Z,8.00
2019-03-20T07:56:12.681Z,8.60
2019-03-20T07:58:41.886Z,8.20
2019-03-20T08:01:12.340Z,9.10
2019-03-20T08:03:41.485Z,9.53
2019-03-20T08:06:10.741Z,9.18
2019-03-20T08:08:39.858Z,8.40
2019-03-20T08:11:09.168Z,9.58
2019-03-20T08:13:38.264Z,9.65
2019-03-20T08:16:07.428Z,9.40
2019-03-20T08:18:36.577Z,19.65
2019-03-20T08:21:05.822Z,14.50
2019-03-20T08:23:34.951Z,11.48
2019-03-20T08:26:04.200Z,11.38
2019-03-20T08:28:33.359Z,10.03
2019-03-20T08:31:02.506Z,11.45
2019-03-20T08:33:31.647Z,13.15
2019-03-20T08:36:00.775Z,12.78
2019-03-20T08:38:29.933Z,12.25
2019-03-20T08:40:59.077Z,11.22
2019-03-20T08:43:28.214Z,10.90
2019-03-20T08:45:57.456Z,11.63
2019-03-20T08:48:26.597Z,10.48
2019-03-20T08:50:55.737Z,10.28
2019-03-20T08:53:24.859Z,9.68
2019-03-20T08:55:54.023Z,9.60
2019-03-20T08:58:23.178Z,10.35
2019-03-20T09:00:52.319Z,10.28
2019-03-20T09:03:21.482Z,10.93
2019-03-20T09:05:50.719Z,10.25
2019-03-20T09:08:28.932Z,9.45
2019-03-20T09:10:50.796Z,9.05
2019-03-20T09:13:19.927Z,8.95
2019-03-20T09:15:49.081Z,9.15
2019-03-20T09:18:18.219Z,9.80
2019-03-20T09:20:47.353Z,8.40
2019-03-20T09:23:16.470Z,9.33
2019-03-20T09:25:45.610Z,8.58
2019-03-20T09:28:14.995Z,9.70
2019-03-20T09:30:44.139Z,10.38
2019-03-20T09:33:13.291Z,9.93
2019-03-20T09:35:42.424Z,9.75
2019-03-20T09:38:11.529Z,9.58
2019-03-20T09:40:40.653Z,9.98
2019-03-20T09:43:09.832Z,8.73
2019-03-20T09:45:38.997Z,9.70
2019-03-20T09:48:08.135Z,10.35
2019-03-20T09:50:37.449Z,11.05
2019-03-20T09:53:06.592Z,9.80
2019-03-20T09:55:35.719Z,9.60
2019-03-20T09:58:11.567Z,9.20
2019-03-20T10:00:35.690Z,8.90
2019-03-20T10:03:04.821Z,8.60
2019-03-20T10:05:33.941Z,7.22
2019-03-20T10:08:03.097Z,8.05
2019-03-20T10:10:32.216Z,7.33
2019-03-20T10:13:01.323Z,7.40
2019-03-20T10:15:30.469Z,6.53
2019-03-20T10:17:59.620Z,7.90
2019-03-20T10:20:28.764Z,6.25
2019-03-20T10:22:57.908Z,6.80
2019-03-20T10:25:27.012Z,7.58
2019-03-20T10:27:56.162Z,6.58
2019-03-20T10:30:25.468Z,7.22
2019-03-20T10:32:54.619Z,7.75
2019-03-20T10:35:23.795Z,6.28
2019-03-20T10:37:52.923Z,7.35
2019-03-20T10:40:22.081Z,6.70
2019-03-20T10:42:51.194Z,6.87
2019-03-20T10:45:20.416Z,5.60
2019-03-20T10:47:52.545Z,6.28
2019-03-20T10:50:21.541Z,6.33
2019-03-20T10:52:50.821Z,7.37
2019-03-20T10:55:19.990Z,9.08
2019-03-20T10:57:49.126Z,6.80
2019-03-20T11:00:19.743Z,7.30
2019-03-20T11:02:49.078Z,9.05
2019-03-20T11:05:18.779Z,11.65
2019-03-20T11:07:48.026Z,6.78
2019-03-20T11:10:19.663Z,7.03
2019-03-20T11:12:48.799Z,6.92
2019-03-20T11:15:18.087Z,7.92
2019-03-20T11:17:47.325Z,11.38
2019-03-20T11:20:17.250Z,6.00
2019-03-20T11:22:46.589Z,6.12
2019-03-20T11:25:16.997Z,5.62
2019-03-20T11:27:46.125Z,5.30
2019-03-20T11:30:22.563Z,4.42
2019-03-20T11:32:51.801Z,4.15
2019-03-20T11:35:21.181Z,5.78
2019-03-20T11:37:50.313Z,5.83
2019-03-20T11:40:21.939Z,5.80
2019-03-20T11:42:51.086Z,5.30
2019-03-20T11:45:20.404Z,5.42
2019-03-20T11:47:49.520Z,4.67
2019-03-20T11:50:27.264Z,3.92
2019-03-20T11:52:56.411Z,5.30
2019-03-20T11:55:25.542Z,4.83
2019-03-20T11:57:54.702Z,8.48
2019-03-20T12:00:24.182Z,4.17
2019-03-20T12:02:53.340Z,2.92
2019-03-20T12:05:22.514Z,3.30
2019-03-20T12:07:51.659Z,3.25
2019-03-20T12:10:21.817Z,3.90
2019-03-20T12:12:50.970Z,3.67
2019-03-20T12:15:20.170Z,4.15
2019-03-20T12:17:49.354Z,4.60
2019-03-20T12:20:19.319Z,4.97
2019-03-20T12:22:48.789Z,5.40
2019-03-20T12:25:28.078Z,5.67
2019-03-20T12:27:57.274Z,4.65
2019-03-20T12:30:27.686Z,4.70
2019-03-20T12:32:56.811Z,5.95
2019-03-20T12:35:27.357Z,5.90
2019-03-20T12:37:56.526Z,5.70
2019-03-20T12:40:27.333Z,6.40
2019-03-20T12:42:56.885Z,6.72
2019-03-20T12:45:31.073Z,6.33
2019-03-20T12:48:00.203Z,5.60
2019-03-20T12:50:29.315Z,5.22
2019-03-20T12:53:01.394Z,5.60
2019-03-20T12:55:31.079Z,4.62
2019-03-20T12:58:00.533Z,5.70
2019-03-20T13:00:29.685Z,4.83
2019-03-20T13:02:58.800Z,4.53
2019-03-20T13:05:27.921Z,5.90
2019-03-20T13:08:05.309Z,5.85
2019-03-20T13:10:28.065Z,6.20
2019-03-20T13:12:57.198Z,5.42
2019-03-20T13:15:26.542Z,4.92
2019-03-20T13:17:56.394Z,5.22
2019-03-20T13:20:25.854Z,5.62
2019-03-20T13:23:00.888Z,4.40
2019-03-20T13:25:30.052Z,5.15
2019-03-20T13:27:59.207Z,6.50
2019-03-20T13:30:30.963Z,5.92
2019-03-20T13:33:00.094Z,5.50
2019-03-20T13:35:29.292Z,5.08
2019-03-20T13:37:58.412Z,5.90
2019-03-20T13:40:27.776Z,6.08
2019-03-20T13:42:56.935Z,6.92
2019-03-20T13:45:26.238Z,6.33
2019-03-20T13:47:55.369Z,6.95
2019-03-20T13:50:24.529Z,6.30
2019-03-20T13:52:53.661Z,4.78
2019-03-20T13:55:22.941Z,5.95
2019-03-20T13:57:52.055Z,6.03
2019-03-20T14:00:21.893Z,5.30
2019-03-20T14:02:51.269Z,5.15
2019-03-20T14:05:20.517Z,5.78
2019-03-20T14:07:49.815Z,6.50
2019-03-20T14:10:25.131Z,5.60
2019-03-20T14:12:50.933Z,5.53
2019-03-20T14:15:20.196Z,5.80
2019-03-20T14:17:49.381Z,5.50
2019-03-20T14:20:20.793Z,5.33
2019-03-20T14:22:49.933Z,5.58
2019-03-20T14:25:19.157Z,5.58
2019-03-20T14:27:48.341Z,4.78
2019-03-20T14:30:22.233Z,6.20
2019-03-20T14:32:51.392Z,4.90
2019-03-20T14:35:20.592Z,5.30
2019-03-20T14:37:49.826Z,5.65
2019-03-20T14:40:21.054Z,5.37
2019-03-20T14:42:50.291Z,5.97
2019-03-20T14:45:19.429Z,4.45
2019-03-20T14:47:48.547Z,4.87
2019-03-20T14:50:19.712Z,5.30
2019-03-20T14:52:48.982Z,4.25
2019-03-20T14:55:18.179Z,4.50
2019-03-20T14:57:47.463Z,4.03
2019-03-20T15:00:21.825Z,5.42
2019-03-20T15:02:51.195Z,5.75
2019-03-20T15:05:20.391Z,4.90
2019-03-20T15:07:49.511Z,4.30
2019-03-20T15:10:20.113Z,5.97
2019-03-20T15:12:49.429Z,6.15
2019-03-20T15:15:48.474Z,5.87
2019-03-20T15:18:17.598Z,5.10
2019-03-20T15:20:46.790Z,5.58
2019-03-20T15:23:15.893Z,5.25
2019-03-20T15:25:45.030Z,5.25
2019-03-20T15:28:14.149Z,5.90
2019-03-20T15:30:43.309Z,6.20
2019-03-20T15:33:12.488Z,5.35
2019-03-20T15:35:41.645Z,6.62
2019-03-20T15:38:10.802Z,5.80
2019-03-20T15:40:39.940Z,6.50
2019-03-20T15:43:09.100Z,6.58
2019-03-20T15:45:38.240Z,6.35
2019-03-20T15:48:07.376Z,5.60
2019-03-20T15:50:36.532Z,5.90
2019-03-20T15:53:05.862Z,6.35
2019-03-20T15:55:35.131Z,6.75
2019-03-20T15:58:04.668Z,5.90
2019-03-20T16:00:33.878Z,11.22
2019-03-20T16:03:05.797Z,7.25
2019-03-20T16:05:34.936Z,6.65
2019-03-20T16:08:04.246Z,7.25
2019-03-20T16:10:33.426Z,5.80
2019-03-20T16:13:02.790Z,7.25
2019-03-20T16:15:32.059Z,5.62
2019-03-20T16:18:01.207Z,6.30
2019-03-20T16:20:30.391Z,6.85
2019-03-20T16:23:00.530Z,6.75
2019-03-20T16:25:29.648Z,6.70
2019-03-20T16:27:58.847Z,7.50
2019-03-20T16:30:28.051Z,6.33
2019-03-20T16:32:57.359Z,5.28
2019-03-20T16:35:26.516Z,4.53
2019-03-20T16:37:55.690Z,5.15
2019-03-20T16:40:25.208Z,4.12
2019-03-20T16:42:54.398Z,6.17
2019-03-20T16:45:25.804Z,5.37
2019-03-20T16:47:54.949Z,3.80
2019-03-20T16:50:24.112Z,4.95
2019-03-20T16:52:53.332Z,4.00
2019-03-20T16:55:22.465Z,4.92
2019-03-20T16:57:51.700Z,3.85
2019-03-20T17:00:25.493Z,3.60
2019-03-20T17:02:54.673Z,3.43
2019-03-20T17:05:24.128Z,3.00
2019-03-20T17:07:53.301Z,4.25
2019-03-20T17:10:27.404Z,4.00
2019-03-20T17:12:56.789Z,3.30
2019-03-20T17:15:26.604Z,3.30
2019-03-20T17:17:55.823Z,3.15
2019-03-20T17:20:25.245Z,3.80
2019-03-20T17:22:54.612Z,3.52
2019-03-20T17:25:23.741Z,3.85
2019-03-20T17:27:53.114Z,3.37
2019-03-20T17:30:30.203Z,3.90
2019-03-20T17:32:59.797Z,4.10
2019-03-20T17:35:29.046Z,3.20
2019-03-20T17:37:58.383Z,4.12
2019-03-20T17:40:28.285Z,4.33
2019-03-20T17:42:57.660Z,3.42
2019-03-20T17:45:26.912Z,3.55
2019-03-20T17:47:56.439Z,3.90
2019-03-20T17:50:27.177Z,4.92
2019-03-20T17:52:56.456Z,4.53
2019-03-20T17:55:25.759Z,3.70
2019-03-20T17:57:54.935Z,3.30
2019-03-20T18:00:31.811Z,3.77
2019-03-20T18:03:01.021Z,3.27
2019-03-20T18:05:30.163Z,4.50
2019-03-20T18:07:59.873Z,4.33
2019-03-20T18:10:29.031Z,3.62
2019-03-20T18:12:58.212Z,3.95
2019-03-20T18:15:27.366Z,3.92
2019-03-20T18:17:56.798Z,3.30
2019-03-20T18:20:26.254Z,3.45
2019-03-20T18:22:55.479Z,5.67
2019-03-20T18:25:24.874Z,8.85
2019-03-20T18:27:54.019Z,5.55
2019-03-20T18:30:23.925Z,4.75
2019-03-20T18:32:53.197Z,5.17
2019-03-20T18:35:22.620Z,4.90
2019-03-20T18:37:51.912Z,3.90
2019-03-20T18:40:21.141Z,6.65
2019-03-20T18:42:50.388Z,8.78
2019-03-20T18:45:20.310Z,8.20
2019-03-20T18:47:49.960Z,5.22
2019-03-20T18:50:19.528Z,4.17
2019-03-20T18:52:49.139Z,6.20
2019-03-20T18:55:18.581Z,3.80
2019-03-20T18:57:48.218Z,3.45
2019-03-20T19:00:24.882Z,2.95
2019-03-20T19:02:55.484Z,3.92
2019-03-20T19:05:31.986Z,3.35
2019-03-20T19:08:01.371Z,4.70
2019-03-20T19:10:31.341Z,10.68
2019-03-20T19:13:00.809Z,10.03
2019-03-20T19:15:30.218Z,5.50
2019-03-20T19:17:59.618Z,4.40
2019-03-20T19:20:28.840Z,3.60
2019-03-20T19:22:58.045Z,3.10
2019-03-20T19:25:27.511Z,3.52
2019-03-20T19:27:56.916Z,3.02
2019-03-20T19:30:26.378Z,4.10
2019-03-20T19:32:55.952Z,3.30
2019-03-20T19:35:25.166Z,2.85
2019-03-20T19:37:54.417Z,7.78
2019-03-20T19:40:23.933Z,5.65
2019-03-20T19:42:53.181Z,4.60
2019-03-20T19:45:22.821Z,4.70
2019-03-20T19:47:52.210Z,4.67
2019-03-20T19:50:22.019Z,4.28
2019-03-20T19:52:51.531Z,3.92
2019-03-20T19:55:20.875Z,4.03
2019-03-20T19:57:53.328Z,3.77
2019-03-20T20:00:23.067Z,3.33
2019-03-20T20:02:52.991Z,4.33
2019-03-20T20:05:22.453Z,3.87
2019-03-20T20:07:52.121Z,6.00
2019-03-20T20:10:21.367Z,5.80
2019-03-20T20:12:50.562Z,4.58
2019-03-20T20:15:21.455Z,4.20
2019-03-20T20:17:50.914Z,4.08
2019-03-20T20:20:20.714Z,4.53
2019-03-20T20:22:49.950Z,4.00
2019-03-20T20:25:19.211Z,3.83
2019-03-20T20:27:48.636Z,3.58
2019-03-20T20:30:18.287Z,3.90
2019-03-20T20:32:47.692Z,4.40
2019-03-20T20:35:16.873Z,4.15
2019-03-20T20:37:46.127Z,4.00
2019-03-20T20:40:16.620Z,3.83
2019-03-20T20:42:45.777Z,2.80
2019-03-20T20:45:15.075Z,3.17
2019-03-20T20:47:44.522Z,4.15
2019-03-20T20:50:13.858Z,2.98
2019-03-20T20:52:43.056Z,3.77
2019-03-20T20:55:12.771Z,4.33
2019-03-20T20:57:42.025Z,4.03
2019-03-20T21:00:20.676Z,3.20
2019-03-20T21:02:49.799Z,3.25
2019-03-20T21:05:18.961Z,4.10
2019-03-20T21:07:48.148Z,3.87
2019-03-20T21:10:17.356Z,4.55
2019-03-20T21:12:55.499Z,3.15
2019-03-20T21:15:45.677Z,4.17
2019-03-20T21:18:55.681Z,4.10
2019-03-20T21:21:28.936Z,4.60
2019-03-20T21:24:30.345Z,5.60
2019-03-20T21:27:43.423Z,4.53
2019-03-20T21:30:52.374Z,5.00
2019-03-20T21:33:36.191Z,3.98
2019-03-20T21:36:36.416Z,3.95
2019-03-20T21:39:07.832Z,3.65
2019-03-20T21:42:31.350Z,3.90
2019-03-20T21:45:29.545Z,5.30
2019-03-20T21:47:59.247Z,4.78
2019-03-20T21:51:06.501Z,4.40
2019-03-20T21:54:18.741Z,4.35
2019-03-20T21:57:25.916Z,3.35
2019-03-20T22:00:54.283Z,4.90
2019-03-20T22:03:24.006Z,5.20
2019-03-20T22:06:32.334Z,5.15
2019-03-20T22:09:07.873Z,4.20
2019-03-20T22:12:12.794Z,4.72
2019-03-20T22:14:43.732Z,5.43
2019-03-20T22:18:07.660Z,4.80
2019-03-20T22:21:04.547Z,4.45
2019-03-20T22:23:58.441Z,5.10
2019-03-20T22:27:08.868Z,5.58
2019-03-20T22:29:38.528Z,4.65
2019-03-20T22:32:53.549Z,4.80
2019-03-20T22:35:46.538Z,5.92
2019-03-20T22:38:52.384Z,5.87
2019-03-20T22:44:07.035Z,4.70
2019-03-20T22:47:31.959Z,6.15
2019-03-20T22:50:19.189Z,6.22
2019-03-20T22:53:14.105Z,5.95
2019-03-20T22:56:40.361Z,4.92
2019-03-20T22:59:10.108Z,6.37
2019-03-20T23:02:29.524Z,5.10
2019-03-20T23:05:00.458Z,4.97
2019-03-20T23:07:30.448Z,6.12
2019-03-20T23:10:00.161Z,5.47
2019-03-20T23:12:30.050Z,8.35
2019-03-20T23:14:59.760Z,6.00
2019-03-20T23:17:29.497Z,6.20
2019-03-20T23:19:59.406Z,6.12
2019-03-20T23:22:29.206Z,5.25
2019-03-20T23:24:59.059Z,7.92
2019-03-20T23:27:30.814Z,5.17
2019-03-20T23:30:01.018Z,7.10
2019-03-20T23:32:31.110Z,6.50
2019-03-20T23:35:00.768Z,7.05
2019-03-20T23:37:30.553Z,7.62
2019-03-20T23:40:00.361Z,8.00
2019-03-20T23:42:30.452Z,7.30
2019-03-20T23:45:00.298Z,7.60
2019-03-20T23:47:44.791Z,8.53
2019-03-20T23:50:14.501Z,8.43
2019-03-20T23:52:44.182Z,8.35
2019-03-20T23:55:13.907Z,9.98
2019-03-20T23:57:43.665Z,10.48
